Time;durP1;ratioP1;P1;durP2;ratioP2;P2;SDS_P1;SDS_P2;PMS_P1;PMS_P2;Temp;Humidity;BMP_temperature;BMP_pressure;BME280_temperature;BME280_humidity;BME280_pressure;Samples;Min_cycle;Max_cycle;Signal;HPM_P1;HPM_P2
2023/03/12 00:07:23;;;;;;;24.47;11.07;;;;;;;11.98;100.00;97915.72;31340114;28;20045;-73
2023/03/12 00:22:26;;;;;;;20.80;10.20;;;;;;;12.24;100.00;97899.38;31346330;28;20053;-74
2023/03/12 00:37:28;;;;;;;22.73;9.97;;;;;;;11.98;100.00;97887.78;31348450;28;20045;-72
2023/03/12 00:52:30;;;;;;;21.50;10.27;;;;;;;11.99;100.00;97856.66;31332220;28;20083;-74
2023/03/12 01:07:32;;;;;;;24.23;10.20;;;;;;;11.78;100.00;97837.69;31347228;28;20056;-73
2023/03/12 01:22:35;;;;;;;23.00;9.97;;;;;;;11.77;100.00;97833.47;31310819;28;20057;-74
2023/03/12 01:37:37;;;;;;;19.83;9.20;;;;;;;11.53;100.00;97797.66;31327843;28;20041;-73
2023/03/12 01:52:39;;;;;;;28.53;8.80;;;;;;;11.48;100.00;97803.78;31326618;28;20057;-71
2023/03/12 02:07:41;;;;;;;16.90;8.17;;;;;;;11.41;100.00;97766.16;31309553;28;20061;-74
2023/03/12 02:22:50;;;;;;;16.47;7.17;;;;;;;11.60;100.00;97746.31;31298386;28;20083;-73
2023/03/12 02:37:55;;;;;;;16.20;6.50;;;;;;;11.65;100.00;97749.56;31340848;28;20552;-73
2023/03/12 02:52:57;;;;;;;11.33;5.33;;;;;;;11.67;100.00;97742.44;31333214;28;20422;-73
2023/03/12 03:08:00;;;;;;;7.60;4.13;;;;;;;11.61;100.00;97747.06;31327002;28;20059;-72
2023/03/12 03:23:03;;;;;;;12.40;3.17;;;;;;;11.67;100.00;97750.56;31327455;28;20057;-74
2023/03/12 03:38:06;;;;;;;16.73;9.73;;;;;;;11.98;100.00;97765.44;31341232;28;20395;-73
2023/03/12 03:53:08;;;;;;;6.40;3.40;;;;;;;12.19;100.00;97758.66;31354758;28;20107;-73
2023/03/12 04:08:13;;;;;;;3.10;2.13;;;;;;;12.56;100.00;97805.59;31349197;28;20049;-75
2023/03/12 04:23:15;;;;;;;4.37;2.20;;;;;;;12.51;100.00;97840.97;31316007;28;20111;-75
2023/03/12 04:38:18;;;;;;;8.77;5.13;;;;;;;12.60;100.00;97925.88;31351453;28;20166;-75
2023/03/12 04:53:21;;;;;;;6.60;3.67;;;;;;;12.42;100.00;97949.97;31338867;28;20065;-73
2023/03/12 05:08:23;;;;;;;8.87;5.17;;;;;;;12.40;100.00;98053.84;31345772;28;20045;-72
2023/03/12 05:23:25;;;;;;;11.53;6.63;;;;;;;12.36;100.00;98107.72;31331995;28;20061;-72
2023/03/12 05:38:27;;;;;;;12.80;6.47;;;;;;;12.21;100.00;98172.34;31321144;28;20052;-72
2023/03/12 05:53:29;;;;;;;12.80;6.63;;;;;;;11.99;100.00;98248.19;31323955;28;20060;-74
2023/03/12 06:08:31;;;;;;;13.73;6.13;;;;;;;11.82;100.00;98294.88;31314749;28;20475;-73
2023/03/12 06:23:33;;;;;;;13.37;6.70;;;;;;;11.70;100.00;98354.97;31327838;28;20090;-74
2023/03/12 06:38:35;;;;;;;14.27;7.73;;;;;;;11.56;100.00;98424.41;31317368;28;20497;-73
2023/03/12 06:53:38;;;;;;;14.10;7.83;;;;;;;11.76;100.00;98476.22;31317654;28;20507;-72
2023/03/12 07:08:43;;;;;;;16.87;7.17;;;;;;;12.13;100.00;98536.47;31344569;28;20106;-74
2023/03/12 07:23:45;;;;;;;15.07;7.90;;;;;;;12.01;100.00;98572.09;31342379;28;20502;-73
2023/03/12 07:38:47;;;;;;;17.57;9.63;;;;;;;11.36;100.00;98617.09;31339771;28;20441;-74
2023/03/12 07:53:49;;;;;;;20.77;10.27;;;;;;;11.22;100.00;98679.03;31348163;28;20058;-73
2023/03/12 08:08:51;;;;;;;21.83;12.07;;;;;;;11.15;100.00;98714.66;31338103;28;20056;-74
2023/03/12 08:23:53;;;;;;;19.60;10.67;;;;;;;11.16;100.00;98727.03;31333867;28;20158;-73
2023/03/12 08:38:55;;;;;;;13.53;8.07;;;;;;;12.72;100.00;98750.88;31333283;28;20045;-74
2023/03/12 08:53:57;;;;;;;13.27;7.13;;;;;;;11.82;100.00;98784.28;31328732;28;20064;-76
2023/03/12 09:09:03;;;;;;;8.63;5.30;;;;;;;11.49;100.00;98794.31;31336176;28;20053;-76
2023/03/12 09:24:13;;;;;;;7.30;3.83;;;;;;;11.34;100.00;98831.47;31366523;28;20080;-76
2023/03/12 09:39:21;;;;;;;5.80;3.13;;;;;;;11.00;100.00;98889.53;31322592;28;20045;-76
2023/03/12 09:54:30;;;;;;;4.57;3.13;;;;;;;10.76;100.00;98911.03;31283064;28;20148;-74
2023/03/12 10:09:47;;;;;;;4.40;3.27;;;;;;;10.67;100.00;98938.13;31330339;28;20044;-74
2023/03/12 10:24:52;;;;;;;5.23;3.23;;;;;;;10.25;100.00;98973.81;31341310;28;20053;-75
2023/03/12 10:39:55;;;;;;;4.00;2.73;;;;;;;10.22;100.00;98961.13;31335385;28;20091;-76
2023/03/12 10:55:20;;;;;;;4.53;3.17;;;;;;;10.27;100.00;98976.06;31338622;28;20049;-74
2023/03/12 11:10:57;;;;;;;2.60;2.10;;;;;;;9.47;100.00;99006.28;31341018;28;20098;-73
2023/03/12 11:26:21;;;;;;;3.63;1.80;;;;;;;9.65;100.00;99047.09;31318399;28;20465;-73
2023/03/12 11:41:41;;;;;;;3.30;1.73;;;;;;;9.40;100.00;99085.81;31328631;28;20045;-74
2023/03/12 11:56:52;;;;;;;4.20;1.93;;;;;;;9.26;100.00;99123.41;31318594;28;20099;-75
2023/03/12 12:12:13;;;;;;;3.00;2.20;;;;;;;9.17;100.00;99154.59;31360762;28;20068;-74
2023/03/12 12:27:28;;;;;;;5.57;1.77;;;;;;;9.10;100.00;99186.53;31326138;28;20056;-74
2023/03/12 12:42:35;;;;;;;3.37;1.90;;;;;;;8.79;100.00;99234.94;31267686;28;20057;-75
2023/03/12 12:58:21;;;;;;;2.57;1.70;;;;;;;8.83;100.00;99254.53;31264034;28;20060;-73
2023/03/12 13:13:24;;;;;;;3.67;1.93;;;;;;;8.45;100.00;99298.41;31135351;28;20337;-74
2023/03/12 13:28:34;;;;;;;2.50;1.70;;;;;;;8.19;100.00;99313.66;31302892;28;20099;-76
2023/03/12 13:43:36;;;;;;;4.17;1.90;;;;;;;8.27;100.00;99338.56;31359509;28;20057;-76
2023/03/12 13:59:06;;;;;;;2.43;1.70;;;;;;;8.14;100.00;99367.44;31341377;28;20049;-75
2023/03/12 14:14:40;;;;;;;3.43;1.90;;;;;;;8.13;100.00;99403.78;31256685;28;20564;-76
2023/03/12 14:30:16;;;;;;;2.13;1.90;;;;;;;8.06;100.00;99431.69;31288099;28;20457;-75
2023/03/12 14:45:21;;;;;;;2.57;1.87;;;;;;;8.00;100.00;99462.34;31320520;28;20045;-76
2023/03/12 15:00:26;;;;;;;2.50;1.93;;;;;;;7.84;100.00;99498.91;31347672;28;20049;-74
2023/03/12 15:15:50;;;;;;;5.23;3.07;;;;;;;7.48;100.00;99538.53;31305058;28;20052;-74
2023/03/12 15:31:14;;;;;;;7.67;3.80;;;;;;;7.49;100.00;99573.22;31367754;28;20052;-74
2023/03/12 15:46:17;;;;;;;8.73;4.17;;;;;;;7.57;100.00;99598.19;31354626;28;20049;-74
2023/03/12 16:01:26;;;;;;;7.30;3.70;;;;;;;7.41;100.00;99636.63;31347593;28;20160;-75
2023/03/12 16:16:28;;;;;;;6.33;3.97;;;;;;;7.27;100.00;99661.13;31336603;28;20057;-73
2023/03/12 16:31:31;;;;;;;7.17;3.53;;;;;;;7.07;100.00;99703.41;31312999;28;20101;-76
2023/03/12 16:46:33;;;;;;;5.80;3.73;;;;;;;6.93;100.00;99739.41;31352435;28;20147;-74
2023/03/12 17:01:36;;;;;;;4.83;2.80;;;;;;;6.84;100.00;99772.28;31341946;28;20502;-76
2023/03/12 17:16:38;;;;;;;4.73;2.97;;;;;;;6.80;100.00;99803.16;31337104;28;20049;-74
2023/03/12 17:31:40;;;;;;;3.60;2.40;;;;;;;6.75;100.00;99822.47;31330721;28;20052;-75
2023/03/12 17:46:42;;;;;;;3.40;2.20;;;;;;;6.74;100.00;99845.22;31328080;28;20045;-79
2023/03/12 18:01:59;;;;;;;3.80;2.43;;;;;;;6.80;100.00;99876.00;31324261;28;20056;-80
2023/03/12 18:17:01;;;;;;;5.43;2.47;;;;;;;6.77;100.00;99901.84;31308323;28;20413;-78
2023/03/12 18:32:03;;;;;;;92.87;34.50;;;;;;;6.67;100.00;99924.25;31321090;28;20110;-79
2023/03/12 18:47:05;;;;;;;4.57;2.83;;;;;;;6.52;100.00;99954.41;31321480;28;20071;-80
2023/03/12 19:02:09;;;;;;;5.50;3.07;;;;;;;6.46;100.00;99973.69;31351525;28;20045;-79
2023/03/12 19:17:11;;;;;;;6.33;2.87;;;;;;;6.45;100.00;99999.13;31339312;28;20048;-78
2023/03/12 19:32:13;;;;;;;5.87;2.83;;;;;;;6.39;100.00;100003.38;31342380;28;20052;-75
2023/03/12 19:47:15;;;;;;;4.93;2.70;;;;;;;6.26;100.00;100018.47;31364994;28;20053;-76
2023/03/12 20:02:18;;;;;;;6.13;3.70;;;;;;;5.98;100.00;100013.94;31346951;28;20048;-75
2023/03/12 20:17:20;;;;;;;6.40;3.67;;;;;;;5.72;100.00;100036.66;31352419;28;20077;-77
2023/03/12 20:32:24;;;;;;;6.13;3.87;;;;;;;5.46;100.00;100045.13;31357741;28;20063;-77
2023/03/12 20:47:26;;;;;;;5.90;3.77;;;;;;;5.18;100.00;100074.72;31358085;28;20135;-76
2023/03/12 21:02:28;;;;;;;6.73;3.70;;;;;;;5.34;100.00;100078.59;31345627;28;20056;-75
2023/03/12 21:17:31;;;;;;;5.33;3.20;;;;;;;5.49;100.00;100093.59;31328682;28;20060;-75
2023/03/12 21:32:36;;;;;;;4.10;2.83;;;;;;;5.55;100.00;100099.38;31331476;28;20057;-76
2023/03/12 21:47:40;;;;;;;3.20;2.00;;;;;;;5.60;100.00;100119.75;31331608;28;20057;-75
2023/03/12 22:02:44;;;;;;;7.63;3.27;;;;;;;5.75;100.00;100132.84;31317795;28;20478;-74
2023/03/12 22:17:46;;;;;;;4.43;2.80;;;;;;;5.81;100.00;100160.94;31306084;28;20714;-74
2023/03/12 22:32:48;;;;;;;7.80;3.20;;;;;;;5.73;100.00;100199.81;31331255;28;20049;-76
2023/03/12 22:47:50;;;;;;;6.17;3.27;;;;;;;5.52;100.00;100221.31;31306593;28;20064;-74
2023/03/12 23:02:52;;;;;;;5.23;3.40;;;;;;;5.28;100.00;100230.06;31324171;28;20099;-75
2023/03/12 23:17:55;;;;;;;6.37;3.53;;;;;;;5.23;100.00;100260.03;31348104;28;20052;-74
2023/03/12 23:32:57;;;;;;;10.03;4.13;;;;;;;5.32;100.00;100261.25;31331560;28;20045;-75
2023/03/12 23:47:59;;;;;;;6.70;3.63;;;;;;;5.25;100.00;100284.66;31329164;28;20434;-74
